Time;durP1;ratioP1;P1;durP2;ratioP2;P2;SDS_P1;SDS_P2;PMS_P1;PMS_P2;Temp;Humidity;BMP_temperature;BMP_pressure;BME280_temperature;BME280_humidity;BME280_pressure;Samples;Min_cycle;Max_cycle;Signal;HPM_P1;HPM_P2
2021/07/04 00:01:46;;;;;;;4.28;3.88;;;;;;;;;;5010173;28;20057;-70
2021/07/04 00:04:13;;;;;;;5.55;3.72;;;;;;;;;;5011284;28;20085;-70
2021/07/04 00:06:39;;;;;;;4.47;3.85;;;;;;;;;;5011456;28;20058;-69
2021/07/04 00:09:06;;;;;;;4.20;3.53;;;;;;;;;;5011067;28;20129;-69
2021/07/04 00:11:32;;;;;;;4.18;3.88;;;;;;;;;;5011137;28;20108;-70
2021/07/04 00:13:59;;;;;;;4.03;3.33;;;;;;;;;;5011570;28;20100;-70
2021/07/04 00:16:25;;;;;;;4.00;3.55;;;;;;;;;;5014393;28;20096;-70
2021/07/04 00:18:52;;;;;;;4.40;3.72;;;;;;;;;;5014822;28;20077;-70
2021/07/04 00:21:19;;;;;;;4.28;3.72;;;;;;;;;;5014379;28;20093;-70
2021/07/04 00:23:45;;;;;;;4.15;3.65;;;;;;;;;;5014950;28;20089;-70
2021/07/04 00:26:13;;;;;;;3.90;3.50;;;;;;;;;;5014546;28;20093;-71
2021/07/04 00:28:40;;;;;;;4.47;4.07;;;;;;;;;;5013372;28;20074;-71
2021/07/04 00:31:07;;;;;;;4.03;3.60;;;;;;;;;;5014116;28;20077;-70
2021/07/04 00:33:33;;;;;;;5.05;3.47;;;;;;;;;;5014473;28;20053;-70
2021/07/04 00:36:00;;;;;;;4.57;3.80;;;;;;;;;;5014254;28;20077;-71
2021/07/04 00:38:27;;;;;;;4.93;4.28;;;;;;;;;;5014205;28;20129;-69
2021/07/04 00:40:53;;;;;;;5.97;4.15;;;;;;;;;;5013011;28;20100;-70
2021/07/04 00:43:20;;;;;;;5.10;4.22;;;;;;;;;;5014282;28;20081;-71
2021/07/04 00:45:46;;;;;;;4.38;3.95;;;;;;;;;;5014349;28;20054;-70
2021/07/04 00:48:14;;;;;;;4.90;4.05;;;;;;;;;;5013844;28;20488;-70
2021/07/04 00:50:41;;;;;;;5.55;4.00;;;;;;;;;;5014343;28;20073;-69
2021/07/04 00:53:08;;;;;;;4.93;4.10;;;;;;;;;;5013933;28;20500;-70
2021/07/04 00:55:34;;;;;;;7.18;4.70;;;;;;;;;;5014058;28;20077;-70
2021/07/04 00:58:02;;;;;;;6.78;4.60;;;;;;;;;;5013800;28;20474;-70
2021/07/04 01:00:30;;;;;;;4.50;3.95;;;;;;;;;;5014026;28;20512;-70
2021/07/04 01:02:57;;;;;;;6.60;4.72;;;;;;;;;;5013756;28;20053;-70
2021/07/04 01:05:26;;;;;;;4.50;4.10;;;;;;;;;;5013945;28;20049;-70
2021/07/04 01:07:53;;;;;;;4.60;4.13;;;;;;;;;;5013764;28;20054;-70
2021/07/04 01:10:21;;;;;;;7.00;4.95;;;;;;;;;;5012693;28;20421;-69
2021/07/04 01:12:50;;;;;;;5.47;4.60;;;;;;;;;;5013808;28;20089;-69
2021/07/04 01:15:18;;;;;;;5.93;5.00;;;;;;;;;;5013649;28;20054;-71
2021/07/04 01:17:46;;;;;;;5.03;4.45;;;;;;;;;;5013787;28;20046;-70
2021/07/04 01:20:18;;;;;;;4.85;4.28;;;;;;;;;;5013507;28;20060;-69
2021/07/04 01:23:05;;;;;;;5.82;4.70;;;;;;;;;;5013494;28;20092;-69
2021/07/04 01:25:34;;;;;;;5.72;4.53;;;;;;;;;;5012422;28;20081;-70
2021/07/04 01:28:01;;;;;;;5.90;4.78;;;;;;;;;;5013398;28;20089;-69
2021/07/04 01:30:28;;;;;;;5.57;4.63;;;;;;;;;;5013306;28;20141;-69
2021/07/04 01:32:55;;;;;;;5.15;4.57;;;;;;;;;;5013475;28;20046;-69
2021/07/04 01:35:22;;;;;;;5.63;4.90;;;;;;;;;;5013095;28;20544;-71
2021/07/04 01:37:48;;;;;;;6.25;5.07;;;;;;;;;;5013284;28;20133;-70
2021/07/04 01:40:15;;;;;;;5.13;4.68;;;;;;;;;;5011955;28;20104;-70
2021/07/04 01:42:43;;;;;;;6.07;5.05;;;;;;;;;;5013189;28;20045;-70
2021/07/04 01:45:13;;;;;;;6.10;5.50;;;;;;;;;;5012648;28;20054;-68
2021/07/04 01:47:40;;;;;;;7.07;4.78;;;;;;;;;;5013205;28;20132;-70
2021/07/04 01:50:09;;;;;;;6.00;4.93;;;;;;;;;;5012770;28;20124;-69
2021/07/04 01:52:36;;;;;;;5.50;4.78;;;;;;;;;;5013013;28;20428;-70
2021/07/04 01:55:08;;;;;;;5.60;5.10;;;;;;;;;;5012976;28;20049;-70
2021/07/04 01:57:34;;;;;;;6.80;5.05;;;;;;;;;;5011885;28;20074;-71
2021/07/04 02:00:09;;;;;;;3.95;2.63;;;;;;;;;;5012873;28;20089;-69
2021/07/04 02:02:37;;;;;;;7.03;5.28;;;;;;;;;;5012714;28;20049;-69
2021/07/04 02:05:04;;;;;;;7.60;4.78;;;;;;;;;;5012693;28;20054;-70
2021/07/04 02:07:31;;;;;;;5.85;4.65;;;;;;;;;;5012792;28;20496;-69
2021/07/04 02:09:57;;;;;;;5.00;4.50;;;;;;;;;;5012760;28;20084;-70
2021/07/04 02:12:24;;;;;;;5.25;4.00;;;;;;;;;;5012446;28;20093;-70
2021/07/04 02:14:51;;;;;;;4.50;3.35;;;;;;;;;;5012790;28;20297;-70
2021/07/04 02:17:17;;;;;;;4.90;2.40;;;;;;;;;;5012488;28;20081;-69
2021/07/04 02:19:44;;;;;;;5.13;3.08;;;;;;;;;;5012397;28;20056;-70
2021/07/04 02:22:11;;;;;;;5.70;5.10;;;;;;;;;;5012163;28;20498;-70
2021/07/04 02:24:38;;;;;;;7.55;5.93;;;;;;;;;;5012733;28;20115;-70
2021/07/04 02:27:10;;;;;;;6.38;5.43;;;;;;;;;;5012360;28;20049;-70
2021/07/04 02:29:38;;;;;;;6.75;5.55;;;;;;;;;;5012614;28;20137;-70
2021/07/04 02:32:06;;;;;;;6.25;5.10;;;;;;;;;;5012149;28;20089;-69
2021/07/04 02:34:33;;;;;;;7.97;5.80;;;;;;;;;;5012125;28;20093;-70
2021/07/04 02:36:59;;;;;;;7.47;5.72;;;;;;;;;;5012027;28;20089;-71
2021/07/04 02:39:26;;;;;;;4.93;4.28;;;;;;;;;;5012006;28;20053;-70
2021/07/04 02:41:52;;;;;;;5.90;5.07;;;;;;;;;;5012080;28;20085;-70
2021/07/04 02:44:19;;;;;;;6.03;5.35;;;;;;;;;;5013896;28;20584;-71
2021/07/04 02:46:45;;;;;;;7.63;6.35;;;;;;;;;;5012243;28;20094;-70
2021/07/04 02:49:12;;;;;;;7.57;5.78;;;;;;;;;;5011661;28;20456;-70
2021/07/04 02:51:39;;;;;;;7.28;5.47;;;;;;;;;;5012027;28;20540;-70
2021/07/04 02:54:05;;;;;;;8.48;5.53;;;;;;;;;;5011988;28;20054;-70
2021/07/04 02:56:49;;;;;;;7.30;5.20;;;;;;;;;;5011898;28;20046;-70
2021/07/04 02:59:15;;;;;;;6.22;5.55;;;;;;;;;;5011846;28;20068;-70
2021/07/04 03:01:42;;;;;;;8.52;5.35;;;;;;;;;;5011675;28;20082;-70
2021/07/04 03:04:08;;;;;;;5.28;4.80;;;;;;;;;;5011813;28;20042;-70
2021/07/04 03:06:35;;;;;;;7.45;5.82;;;;;;;;;;5012049;28;20089;-71
2021/07/04 03:09:02;;;;;;;6.78;5.40;;;;;;;;;;5011739;28;20085;-69
2021/07/04 03:11:28;;;;;;;9.00;5.63;;;;;;;;;;5011878;28;20145;-69
2021/07/04 03:13:55;;;;;;;6.78;5.57;;;;;;;;;;5011924;28;20108;-70
2021/07/04 03:16:21;;;;;;;6.90;5.57;;;;;;;;;;5010602;28;20081;-70
2021/07/04 03:18:48;;;;;;;9.05;6.18;;;;;;;;;;5011856;28;20049;-70
2021/07/04 03:21:14;;;;;;;8.05;5.40;;;;;;;;;;5011673;28;20054;-69
2021/07/04 03:23:41;;;;;;;6.35;5.72;;;;;;;;;;5011965;28;20089;-70
2021/07/04 03:26:07;;;;;;;6.70;5.85;;;;;;;;;;4999137;28;20050;-69
2021/07/04 03:28:34;;;;;;;7.47;6.05;;;;;;;;;;5034884;22;20054;-68
2021/07/04 03:31:00;;;;;;;6.63;5.95;;;;;;;;;;5011654;28;20081;-68
2021/07/04 03:33:29;;;;;;;6.88;5.90;;;;;;;;;;5011909;28;20123;-69
2021/07/04 03:35:55;;;;;;;7.63;6.40;;;;;;;;;;5011723;28;20507;-69
2021/07/04 03:38:22;;;;;;;6.68;6.03;;;;;;;;;;5011652;28;20049;-68
2021/07/04 03:40:48;;;;;;;9.57;7.07;;;;;;;;;;5011720;28;20519;-69
2021/07/04 03:43:15;;;;;;;8.75;7.45;;;;;;;;;;5011588;28;20092;-68
2021/07/04 03:45:41;;;;;;;7.50;6.25;;;;;;;;;;5011745;28;20085;-69
2021/07/04 03:48:08;;;;;;;7.65;6.68;;;;;;;;;;5010910;28;20081;-69
2021/07/04 03:50:35;;;;;;;8.88;7.07;;;;;;;;;;5013798;28;20420;-68
2021/07/04 03:53:02;;;;;;;10.55;6.90;;;;;;;;;;5015280;28;20535;-69
2021/07/04 03:55:30;;;;;;;7.53;6.70;;;;;;;;;;5015320;28;20321;-69
2021/07/04 03:57:56;;;;;;;9.38;6.07;;;;;;;;;;5015254;28;20045;-68
2021/07/04 04:00:23;;;;;;;6.97;6.28;;;;;;;;;;5015175;28;20104;-69
2021/07/04 04:02:49;;;;;;;7.18;6.40;;;;;;;;;;5015105;28;20084;-69
2021/07/04 04:05:16;;;;;;;8.07;5.78;;;;;;;;;;5015013;28;20088;-68
2021/07/04 04:07:43;;;;;;;9.35;6.13;;;;;;;;;;5014900;28;20551;-68
2021/07/04 04:10:11;;;;;;;6.20;5.60;;;;;;;;;;5014946;28;20050;-68
2021/07/04 04:12:37;;;;;;;7.43;6.00;;;;;;;;;;5014995;28;20073;-68
2021/07/04 04:15:07;;;;;;;9.88;5.95;;;;;;;;;;5014930;28;20057;-68
2021/07/04 04:17:33;;;;;;;7.15;5.13;;;;;;;;;;5014825;28;20092;-69
2021/07/04 04:20:00;;;;;;;5.65;5.03;;;;;;;;;;5014844;28;20100;-69
2021/07/04 04:22:26;;;;;;;6.05;5.45;;;;;;;;;;5014671;28;20054;-68
2021/07/04 04:24:53;;;;;;;6.13;4.47;;;;;;;;;;5014517;28;20081;-68
2021/07/04 04:27:19;;;;;;;6.40;4.80;;;;;;;;;;5014676;28;20089;-68
2021/07/04 04:29:46;;;;;;;6.63;5.05;;;;;;;;;;5014902;28;20065;-68
2021/07/04 04:32:13;;;;;;;7.70;5.15;;;;;;;;;;5014492;28;20054;-69
2021/07/04 04:34:40;;;;;;;6.03;4.90;;;;;;;;;;5014674;28;20050;-68
2021/07/04 04:37:06;;;;;;;6.82;5.32;;;;;;;;;;5014576;28;20301;-69
2021/07/04 04:39:33;;;;;;;6.38;4.93;;;;;;;;;;5014415;28;20489;-69
2021/07/04 04:42:00;;;;;;;5.68;5.00;;;;;;;;;;5014275;28;20498;-69
2021/07/04 04:44:34;;;;;;;8.88;5.15;;;;;;;;;;5014476;28;20084;-69
2021/07/04 04:47:01;;;;;;;5.68;4.80;;;;;;;;;;5014038;28;20046;-70
2021/07/04 04:49:28;;;;;;;6.50;4.47;;;;;;;;;;5013082;28;20078;-69
2021/07/04 04:51:54;;;;;;;5.30;4.80;;;;;;;;;;5014350;28;20073;-68
2021/07/04 04:54:21;;;;;;;5.10;4.63;;;;;;;;;;5014095;28;20108;-68
2021/07/04 04:56:47;;;;;;;4.88;4.07;;;;;;;;;;5014330;28;20049;-69
2021/07/04 04:59:14;;;;;;;5.30;3.88;;;;;;;;;;5013978;28;20073;-68
2021/07/04 05:01:40;;;;;;;4.72;3.95;;;;;;;;;;5013504;28;20084;-68
2021/07/04 05:04:08;;;;;;;4.72;4.10;;;;;;;;;;5013990;28;20230;-69
2021/07/04 05:06:35;;;;;;;4.60;4.20;;;;;;;;;;5014197;28;20077;-69
2021/07/04 05:09:02;;;;;;;4.72;4.22;;;;;;;;;;5013612;28;20085;-69
2021/07/04 05:11:29;;;;;;;4.05;3.40;;;;;;;;;;5017530;28;20466;-69
2021/07/04 05:13:55;;;;;;;5.63;3.90;;;;;;;;;;5015009;28;20089;-70
2021/07/04 05:16:22;;;;;;;4.78;4.38;;;;;;;;;;5014157;28;20092;-69
2021/07/04 05:18:49;;;;;;;4.82;3.67;;;;;;;;;;5014007;28;20575;-68
2021/07/04 05:21:15;;;;;;;5.28;4.18;;;;;;;;;;5014288;28;20443;-70
2021/07/04 05:23:45;;;;;;;4.90;3.50;;;;;;;;;;5012960;28;20463;-68
2021/07/04 05:26:12;;;;;;;4.28;3.85;;;;;;;;;;5019081;28;20061;-69
2021/07/04 05:28:40;;;;;;;4.22;3.83;;;;;;;;;;5022933;28;20428;-68
2021/07/04 05:31:07;;;;;;;4.63;4.10;;;;;;;;;;5027505;28;20046;-69
2021/07/04 05:33:33;;;;;;;4.60;4.07;;;;;;;;;;5027019;28;20057;-69
2021/07/04 05:36:00;;;;;;;4.85;4.28;;;;;;;;;;5026920;28;20046;-69
2021/07/04 05:38:32;;;;;;;5.28;3.80;;;;;;;;;;5023397;28;20046;-69
2021/07/04 05:40:59;;;;;;;6.57;4.35;;;;;;;;;;5016977;28;20073;-69
2021/07/04 05:43:25;;;;;;;5.28;4.18;;;;;;;;;;5022953;28;20068;-69
2021/07/04 05:45:53;;;;;;;4.55;4.03;;;;;;;;;;5027659;28;20065;-70
2021/07/04 05:48:20;;;;;;;4.63;3.60;;;;;;;;;;5027578;28;20111;-69
2021/07/04 05:50:50;;;;;;;7.03;3.85;;;;;;;;;;5027148;28;20042;-70
2021/07/04 05:53:16;;;;;;;4.57;3.83;;;;;;;;;;5026635;28;20050;-68
2021/07/04 05:55:43;;;;;;;4.40;3.97;;;;;;;;;;5027348;28;20092;-70
2021/07/04 05:58:10;;;;;;;4.30;3.67;;;;;;;;;;5026043;28;20072;-68
2021/07/04 06:00:37;;;;;;;3.95;3.55;;;;;;;;;;5025460;28;20038;-69
2021/07/04 06:03:03;;;;;;;5.20;3.83;;;;;;;;;;5028051;28;20087;-70
2021/07/04 06:05:30;;;;;;;4.63;3.78;;;;;;;;;;5028120;28;20073;-69
2021/07/04 06:07:57;;;;;;;5.25;3.40;;;;;;;;;;5029235;28;20205;-69
2021/07/04 06:10:23;;;;;;;3.92;3.63;;;;;;;;;;5025674;28;20052;-67
2021/07/04 06:12:50;;;;;;;4.85;4.25;;;;;;;;;;5026635;28;20061;-66
2021/07/04 06:15:17;;;;;;;4.22;3.83;;;;;;;;;;5026304;28;20050;-66
2021/07/04 06:17:43;;;;;;;5.45;4.07;;;;;;;;;;5025626;28;20049;-68
2021/07/04 06:20:11;;;;;;;3.80;3.50;;;;;;;;;;5022542;28;20046;-66
2021/07/04 06:22:38;;;;;;;3.75;3.45;;;;;;;;;;5024283;28;20046;-67
2021/07/04 06:25:07;;;;;;;4.32;3.92;;;;;;;;;;5023770;28;20054;-67
2021/07/04 06:27:34;;;;;;;4.43;3.45;;;;;;;;;;5023040;28;20061;-67
2021/07/04 06:30:01;;;;;;;5.05;4.30;;;;;;;;;;5023236;28;20045;-69
2021/07/04 06:32:28;;;;;;;5.35;4.60;;;;;;;;;;5023761;28;20053;-69
2021/07/04 06:34:54;;;;;;;7.10;4.50;;;;;;;;;;5022185;28;20046;-68
2021/07/04 06:37:21;;;;;;;5.35;4.70;;;;;;;;;;5023351;28;20046;-69
2021/07/04 06:39:48;;;;;;;5.72;4.70;;;;;;;;;;5022906;28;20053;-70
2021/07/04 06:42:14;;;;;;;5.43;4.70;;;;;;;;;;5017234;28;20370;-69
2021/07/04 06:44:41;;;;;;;6.28;4.20;;;;;;;;;;5010540;28;20489;-69
2021/07/04 06:47:07;;;;;;;4.57;4.15;;;;;;;;;;5009641;28;20108;-68
2021/07/04 06:49:34;;;;;;;6.07;4.60;;;;;;;;;;5010375;28;20096;-69
2021/07/04 06:52:01;;;;;;;5.82;4.53;;;;;;;;;;5008609;28;20551;-69
2021/07/04 06:54:28;;;;;;;5.43;4.10;;;;;;;;;;5010118;28;20120;-69
2021/07/04 06:56:54;;;;;;;5.63;4.18;;;;;;;;;;5010020;28;20149;-69
2021/07/04 06:59:21;;;;;;;5.18;4.68;;;;;;;;;;5009565;28;20068;-69
2021/07/04 07:01:47;;;;;;;4.75;4.13;;;;;;;;;;5009713;28;20579;-69
2021/07/04 07:04:14;;;;;;;6.07;4.50;;;;;;;;;;5010027;28;20089;-69
2021/07/04 07:06:40;;;;;;;5.45;3.90;;;;;;;;;;5010206;28;20045;-69
2021/07/04 07:09:07;;;;;;;6.55;4.10;;;;;;;;;;5010031;28;20081;-70
2021/07/04 07:11:34;;;;;;;5.32;4.40;;;;;;;;;;5009126;28;20125;-70
2021/07/04 07:14:00;;;;;;;4.45;3.90;;;;;;;;;;5009837;28;20124;-69
2021/07/04 07:16:27;;;;;;;4.22;3.65;;;;;;;;;;5009886;28;20112;-69
2021/07/04 07:18:53;;;;;;;3.85;3.55;;;;;;;;;;5009865;28;20088;-69
2021/07/04 07:21:20;;;;;;;4.25;3.85;;;;;;;;;;5009641;28;20088;-69
2021/07/04 07:23:47;;;;;;;5.82;4.10;;;;;;;;;;5010524;28;20420;-70
2021/07/04 07:26:13;;;;;;;4.70;4.30;;;;;;;;;;5013207;28;20085;-69
2021/07/04 07:28:40;;;;;;;5.13;3.83;;;;;;;;;;5013641;28;20054;-68
2021/07/04 07:31:06;;;;;;;4.82;3.97;;;;;;;;;;5013578;28;20488;-68
2021/07/04 07:33:33;;;;;;;4.53;4.13;;;;;;;;;;5013702;28;20050;-70
2021/07/04 07:36:00;;;;;;;4.90;3.95;;;;;;;;;;5013789;28;20065;-69
2021/07/04 07:38:27;;;;;;;5.10;4.18;;;;;;;;;;5012754;28;20077;-69
2021/07/04 07:40:53;;;;;;;4.07;3.22;;;;;;;;;;5013400;28;20081;-69
2021/07/04 07:43:20;;;;;;;5.55;3.75;;;;;;;;;;5013174;28;20583;-68
2021/07/04 07:45:49;;;;;;;4.88;3.92;;;;;;;;;;5013394;28;20053;-70
2021/07/04 07:48:16;;;;;;;4.60;4.07;;;;;;;;;;5013182;28;20093;-68
2021/07/04 07:50:42;;;;;;;5.78;4.20;;;;;;;;;;5013321;28;20133;-69
2021/07/04 07:53:10;;;;;;;4.60;4.20;;;;;;;;;;5012825;28;20053;-68
2021/07/04 07:55:37;;;;;;;5.60;4.32;;;;;;;;;;5011994;28;20089;-68
2021/07/04 07:58:03;;;;;;;4.97;4.35;;;;;;;;;;5013308;28;20081;-69
2021/07/04 08:00:30;;;;;;;5.13;4.50;;;;;;;;;;5013455;28;20085;-69
2021/07/04 08:02:56;;;;;;;4.68;4.20;;;;;;;;;;5013129;28;20477;-68
2021/07/04 08:05:23;;;;;;;6.68;4.57;;;;;;;;;;5012424;28;20057;-68
2021/07/04 08:07:50;;;;;;;4.40;3.70;;;;;;;;;;5013134;28;20123;-69
2021/07/04 08:10:16;;;;;;;5.57;4.45;;;;;;;;;;5012710;28;20081;-68
2021/07/04 08:12:43;;;;;;;4.80;4.30;;;;;;;;;;5012953;28;20096;-69
2021/07/04 08:15:10;;;;;;;5.90;3.80;;;;;;;;;;5012542;28;20046;-69
2021/07/04 08:17:37;;;;;;;5.20;4.43;;;;;;;;;;5012396;28;20141;-69
2021/07/04 08:20:05;;;;;;;5.03;4.35;;;;;;;;;;5012550;28;20073;-69
2021/07/04 08:22:32;;;;;;;5.50;4.13;;;;;;;;;;5012785;28;20081;-68
2021/07/04 08:24:58;;;;;;;4.10;3.70;;;;;;;;;;5012404;28;20089;-69
2021/07/04 08:27:25;;;;;;;4.82;4.03;;;;;;;;;;5012457;28;20144;-69
2021/07/04 08:29:51;;;;;;;5.20;3.60;;;;;;;;;;5012746;28;20054;-68
2021/07/04 08:32:18;;;;;;;5.63;4.00;;;;;;;;;;5011968;28;20069;-68
2021/07/04 08:34:45;;;;;;;5.70;3.97;;;;;;;;;;5012562;28;20100;-69
2021/07/04 08:37:11;;;;;;;6.60;4.50;;;;;;;;;;5011774;28;20073;-69
2021/07/04 08:39:38;;;;;;;5.03;3.97;;;;;;;;;;5012663;28;20057;-67
2021/07/04 08:42:04;;;;;;;4.45;3.85;;;;;;;;;;5011950;28;20053;-69
2021/07/04 08:44:31;;;;;;;5.05;4.15;;;;;;;;;;5012023;28;20140;-69
2021/07/04 08:46:59;;;;;;;4.72;3.95;;;;;;;;;;5012593;28;20481;-68
2021/07/04 08:49:25;;;;;;;4.65;4.15;;;;;;;;;;5011682;28;20468;-68
2021/07/04 08:51:52;;;;;;;5.10;3.85;;;;;;;;;;5012296;28;20108;-68
2021/07/04 08:54:19;;;;;;;4.57;3.58;;;;;;;;;;4994599;28;20449;-69
2021/07/04 08:56:50;;;;;;;3.90;3.60;;;;;;;;;;5011499;28;20046;-69
2021/07/04 08:59:16;;;;;;;4.30;3.83;;;;;;;;;;5011612;28;20062;-68
2021/07/04 09:01:48;;;;;;;4.03;3.65;;;;;;;;;;4992286;28;20101;-69
2021/07/04 09:04:19;;;;;;;3.80;3.50;;;;;;;;;;5007169;28;20104;-69
2021/07/04 09:06:52;;;;;;;5.00;3.70;;;;;;;;;;5012099;28;20046;-69
2021/07/04 09:09:26;;;;;;;4.18;3.78;;;;;;;;;;5011478;28;20077;-69
2021/07/04 09:12:11;;;;;;;4.40;4.00;;;;;;;;;;5011358;28;20084;-68
2021/07/04 09:14:42;;;;;;;5.80;3.83;;;;;;;;;;5011467;28;20092;-69
2021/07/04 09:17:36;;;;;;;5.28;3.92;;;;;;;;;;5011868;28;20056;-69
2021/07/04 09:20:08;;;;;;;5.32;3.97;;;;;;;;;;5011539;28;20120;-69
2021/07/04 09:22:39;;;;;;;4.55;3.90;;;;;;;;;;5011442;28;20054;-69
2021/07/04 09:25:17;;;;;;;7.88;3.90;;;;;;;;;;5011338;28;20143;-69
2021/07/04 09:28:07;;;;;;;4.15;3.60;;;;;;;;;;5010213;28;20728;-69
2021/07/04 09:30:38;;;;;;;3.08;2.83;;;;;;;;;;4989828;28;20866;-68
2021/07/04 09:33:09;;;;;;;3.75;3.40;;;;;;;;;;4997478;28;20056;-71
2021/07/04 09:35:35;;;;;;;5.25;3.28;;;;;;;;;;4998476;28;20153;-72
2021/07/04 09:38:02;;;;;;;3.45;3.15;;;;;;;;;;4997056;28;20050;-70
2021/07/04 09:40:29;;;;;;;4.20;3.80;;;;;;;;;;4981708;28;20568;-70
2021/07/04 09:43:00;;;;;;;3.60;3.15;;;;;;;;;;4999778;28;20081;-70
2021/07/04 09:45:40;;;;;;;3.97;3.28;;;;;;;;;;4999331;28;20088;-68
2021/07/04 09:48:07;;;;;;;3.22;2.97;;;;;;;;;;4996942;28;20410;-68
2021/07/04 09:50:40;;;;;;;3.70;3.30;;;;;;;;;;5000120;28;20073;-66
2021/07/04 09:53:11;;;;;;;3.42;3.00;;;;;;;;;;5031391;22;20049;-73
2021/07/04 09:55:38;;;;;;;3.97;2.88;;;;;;;;;;5007968;28;20081;-74
2021/07/04 09:58:17;;;;;;;4.75;3.40;;;;;;;;;;5027201;28;20088;-75
2021/07/04 10:00:45;;;;;;;3.60;3.03;;;;;;;;;;4995467;28;20544;-73
2021/07/04 10:03:13;;;;;;;3.45;3.03;;;;;;;;;;5008561;28;20074;-73
2021/07/04 10:06:00;;;;;;;5.68;3.67;;;;;;;;;;5002950;28;20518;-75
2021/07/04 10:08:35;;;;;;;3.05;2.80;;;;;;;;;;4999279;28;20086;-74
2021/07/04 10:11:07;;;;;;;3.28;2.85;;;;;;;;;;4996734;28;20046;-72
2021/07/04 10:13:36;;;;;;;3.25;2.92;;;;;;;;;;5002378;28;20054;-72
2021/07/04 10:16:05;;;;;;;3.40;2.85;;;;;;;;;;4997848;28;20050;-71
2021/07/04 10:18:32;;;;;;;2.75;2.55;;;;;;;;;;5000142;28;20128;-68
2021/07/04 10:20:58;;;;;;;3.08;2.53;;;;;;;;;;4997877;28;20081;-69
2021/07/04 10:23:26;;;;;;;3.97;2.60;;;;;;;;;;5000121;28;20191;-72
2021/07/04 10:25:54;;;;;;;3.50;2.80;;;;;;;;;;5005786;28;20085;-79
2021/07/04 10:28:32;;;;;;;3.42;2.38;;;;;;;;;;5006943;28;20571;-72
2021/07/04 10:31:00;;;;;;;3.38;2.50;;;;;;;;;;4999674;28;20702;-67
2021/07/04 10:33:35;;;;;;;2.53;2.33;;;;;;;;;;5002929;28;20101;-69
2021/07/04 10:36:21;;;;;;;3.08;2.75;;;;;;;;;;4999221;28;20049;-67
2021/07/04 10:38:54;;;;;;;2.75;2.55;;;;;;;;;;4997952;28;20054;-68
2021/07/04 10:41:25;;;;;;;3.70;2.70;;;;;;;;;;4999238;28;20447;-72
2021/07/04 10:43:56;;;;;;;2.58;2.38;;;;;;;;;;4998290;28;20085;-72
2021/07/04 10:46:44;;;;;;;4.03;2.75;;;;;;;;;;4997800;28;20054;-76
2021/07/04 10:49:14;;;;;;;3.13;2.70;;;;;;;;;;4998376;28;20148;-69
2021/07/04 10:52:11;;;;;;;2.92;2.72;;;;;;;;;;4997391;28;20092;-67
2021/07/04 10:54:44;;;;;;;4.10;2.80;;;;;;;;;;4996424;28;20080;-67
2021/07/04 10:57:13;;;;;;;3.03;2.60;;;;;;;;;;4996334;28;20073;-66
2021/07/04 11:02:36;;;;;;;3.40;3.00;;;;;;;;;;4994866;28;20115;-67
2021/07/04 11:05:13;;;;;;;3.35;2.85;;;;;;;;;;4997360;28;20472;-67
2021/07/04 11:07:52;;;;;;;4.72;3.20;;;;;;;;;;4997518;28;20104;-67
2021/07/04 11:10:27;;;;;;;3.38;2.90;;;;;;;;;;4997386;28;20097;-66
2021/07/04 11:12:54;;;;;;;3.50;2.80;;;;;;;;;;4998848;28;20049;-66
2021/07/04 11:15:21;;;;;;;3.38;2.70;;;;;;;;;;4997530;28;20068;-67
2021/07/04 11:17:56;;;;;;;2.90;2.55;;;;;;;;;;4998787;28;20046;-67
2021/07/04 11:20:49;;;;;;;2.72;2.38;;;;;;;;;;4997201;28;20050;-65
2021/07/04 11:23:16;;;;;;;3.53;2.80;;;;;;;;;;4995740;28;20054;-66
2021/07/04 11:25:53;;;;;;;2.78;2.58;;;;;;;;;;4996882;28;20077;-66
2021/07/04 11:28:23;;;;;;;2.70;2.50;;;;;;;;;;4997104;28;20129;-66
2021/07/04 11:31:13;;;;;;;2.40;2.20;;;;;;;;;;4998006;28;20053;-66
2021/07/04 11:33:43;;;;;;;3.35;3.05;;;;;;;;;;4992244;28;20058;-66
2021/07/04 11:36:10;;;;;;;2.72;2.10;;;;;;;;;;4996767;28;20050;-66
2021/07/04 11:38:48;;;;;;;2.80;2.50;;;;;;;;;;4998811;28;20055;-66
2021/07/04 11:41:26;;;;;;;2.75;2.33;;;;;;;;;;4997151;28;20074;-66
2021/07/04 11:44:03;;;;;;;3.55;2.50;;;;;;;;;;4999776;28;20084;-66
2021/07/04 11:46:31;;;;;;;3.50;3.20;;;;;;;;;;4998554;28;20096;-66
2021/07/04 11:49:14;;;;;;;3.42;3.13;;;;;;;;;;4997408;28;20192;-66
2021/07/04 11:51:45;;;;;;;2.80;2.60;;;;;;;;;;4993369;28;20408;-66
2021/07/04 11:54:19;;;;;;;3.45;2.42;;;;;;;;;;4997970;28;20462;-66
2021/07/04 11:56:52;;;;;;;5.13;3.13;;;;;;;;;;4997766;28;20057;-66
2021/07/04 11:59:21;;;;;;;2.55;2.35;;;;;;;;;;4997245;28;20143;-66
2021/07/04 12:01:54;;;;;;;3.05;2.40;;;;;;;;;;5001377;28;20038;-66
2021/07/04 12:04:40;;;;;;;3.13;2.40;;;;;;;;;;4997326;28;20412;-66
2021/07/04 12:07:11;;;;;;;2.83;2.40;;;;;;;;;;4999911;28;20496;-66
2021/07/04 12:09:41;;;;;;;2.72;2.53;;;;;;;;;;4999138;28;20474;-66
2021/07/04 12:12:13;;;;;;;2.65;2.45;;;;;;;;;;4999501;28;20042;-66
2021/07/04 12:14:40;;;;;;;;;;;;;;;;;;5005882;28;20050;-66
2021/07/04 12:17:42;;;;;;;2.78;2.50;;;;;;;;;;5000743;28;19979;-66
2021/07/04 12:20:10;;;;;;;3.45;2.90;;;;;;;;;;4993377;28;20046;-66
2021/07/04 12:22:52;;;;;;;3.53;2.47;;;;;;;;;;4998267;28;20073;-66
2021/07/04 12:25:31;;;;;;;7.13;3.03;;;;;;;;;;5002020;28;20053;-66
2021/07/04 12:28:00;;;;;;;3.50;2.90;;;;;;;;;;5004363;28;20113;-66
2021/07/04 12:30:36;;;;;;;4.45;3.30;;;;;;;;;;5000322;28;20559;-66
2021/07/04 12:33:10;;;;;;;3.88;3.47;;;;;;;;;;5000246;28;20041;-66
2021/07/04 12:35:38;;;;;;;4.03;3.63;;;;;;;;;;5002369;28;20077;-66
2021/07/04 12:38:15;;;;;;;4.15;3.30;;;;;;;;;;5002054;28;20081;-66
2021/07/04 12:40:52;;;;;;;212.35;25.23;;;;;;;;;;5003052;28;20073;-66
2021/07/04 12:43:25;;;;;;;4.13;3.72;;;;;;;;;;5001557;28;20049;-66
2021/07/04 12:45:53;;;;;;;4.43;3.75;;;;;;;;;;4996485;28;20105;-66
2021/07/04 12:48:22;;;;;;;4.10;3.70;;;;;;;;;;4998089;28;20097;-66
2021/07/04 12:50:56;;;;;;;4.10;3.70;;;;;;;;;;4994712;28;20069;-66
2021/07/04 12:53:34;;;;;;;3.85;3.45;;;;;;;;;;4994400;28;20089;-66
2021/07/04 12:56:01;;;;;;;5.35;3.97;;;;;;;;;;4994806;28;20432;-66
2021/07/04 12:58:36;;;;;;;5.45;3.90;;;;;;;;;;4994623;28;20090;-66
2021/07/04 13:01:10;;;;;;;3.63;3.33;;;;;;;;;;4994528;28;20484;-66
2021/07/04 13:03:51;;;;;;;3.63;3.33;;;;;;;;;;4994633;28;20051;-66
2021/07/04 13:06:51;;;;;;;3.90;3.50;;;;;;;;;;4994362;28;20145;-66
2021/07/04 13:09:40;;;;;;;4.57;3.75;;;;;;;;;;4994204;28;20082;-66
2021/07/04 13:12:10;;;;;;;3.60;3.30;;;;;;;;;;4986390;28;20074;-66
2021/07/04 13:14:39;;;;;;;3.97;3.58;;;;;;;;;;4994736;28;20081;-67
2021/07/04 13:17:26;;;;;;;2.95;2.75;;;;;;;;;;4989315;28;20084;-72
2021/07/04 13:19:54;;;;;;;3.78;3.15;;;;;;;;;;4994910;28;20417;-69
2021/07/04 13:22:25;;;;;;;3.33;3.03;;;;;;;;;;4992304;28;20050;-66
2021/07/04 13:24:56;;;;;;;3.80;3.50;;;;;;;;;;4994247;28;20482;-68
2021/07/04 13:27:29;;;;;;;4.60;3.15;;;;;;;;;;4993924;28;20061;-69
2021/07/04 13:29:56;;;;;;;5.25;3.63;;;;;;;;;;4994065;28;20053;-70
2021/07/04 13:32:27;;;;;;;3.60;3.30;;;;;;;;;;4993137;28;20046;-69
2021/07/04 13:34:57;;;;;;;4.10;3.60;;;;;;;;;;4993898;28;20050;-69
2021/07/04 13:37:28;;;;;;;3.50;3.20;;;;;;;;;;4993272;28;20054;-69
2021/07/04 13:39:57;;;;;;;3.97;3.58;;;;;;;;;;4993718;28;20081;-70
2021/07/04 13:42:24;;;;;;;4.72;3.60;;;;;;;;;;4993390;28;20077;-70
2021/07/04 13:44:52;;;;;;;4.95;3.78;;;;;;;;;;4993856;28;20089;-73
2021/07/04 13:47:18;;;;;;;4.10;3.70;;;;;;;;;;4993802;28;20058;-72
2021/07/04 13:49:45;;;;;;;5.35;4.25;;;;;;;;;;4993484;28;20077;-70
2021/07/04 13:52:14;;;;;;;4.20;3.80;;;;;;;;;;4993315;28;20404;-71
2021/07/04 13:54:42;;;;;;;4.00;3.38;;;;;;;;;;4993431;28;20097;-69
2021/07/04 13:57:09;;;;;;;3.65;3.35;;;;;;;;;;4993003;28;20050;-65
2021/07/04 13:59:36;;;;;;;4.15;3.85;;;;;;;;;;4993274;28;20081;-65
2021/07/04 14:02:03;;;;;;;4.85;4.35;;;;;;;;;;4993053;28;20121;-65
2021/07/04 14:04:30;;;;;;;6.10;4.78;;;;;;;;;;4992836;28;20101;-65
2021/07/04 14:06:58;;;;;;;11.43;6.22;;;;;;;;;;4993081;28;20093;-66
2021/07/04 14:09:26;;;;;;;9.65;5.93;;;;;;;;;;4972400;28;20136;-66
2021/07/04 14:11:52;;;;;;;6.32;5.10;;;;;;;;;;4990995;28;20082;-66
2021/07/04 14:14:19;;;;;;;6.13;5.13;;;;;;;;;;4990454;28;20444;-66
2021/07/04 14:16:46;;;;;;;5.53;5.03;;;;;;;;;;4990586;28;20137;-67
2021/07/04 14:19:12;;;;;;;6.22;4.90;;;;;;;;;;4990789;28;20054;-67
2021/07/04 14:21:39;;;;;;;6.80;5.07;;;;;;;;;;4990084;28;20572;-67
2021/07/04 14:24:05;;;;;;;5.95;4.50;;;;;;;;;;4990938;28;20097;-67
2021/07/04 14:26:32;;;;;;;3.92;3.58;;;;;;;;;;4990817;28;20141;-67
2021/07/04 14:28:58;;;;;;;4.10;3.35;;;;;;;;;;4989165;28;20489;-67
2021/07/04 14:31:25;;;;;;;2.72;2.53;;;;;;;;;;4988497;28;20149;-67
2021/07/04 14:33:52;;;;;;;3.08;2.17;;;;;;;;;;4989508;28;20082;-67
2021/07/04 14:36:19;;;;;;;3.63;2.88;;;;;;;;;;4990439;28;20137;-67
2021/07/04 14:38:46;;;;;;;3.47;3.17;;;;;;;;;;4990843;28;20476;-68
2021/07/04 14:41:13;;;;;;;2.95;2.75;;;;;;;;;;4990464;28;20078;-69
2021/07/04 14:43:39;;;;;;;3.28;2.97;;;;;;;;;;4986255;28;20492;-73
2021/07/04 14:46:06;;;;;;;3.55;2.97;;;;;;;;;;5010833;28;20060;-73
2021/07/04 14:48:33;;;;;;;3.30;3.00;;;;;;;;;;5010584;28;20131;-71
2021/07/04 14:51:05;;;;;;;3.47;3.17;;;;;;;;;;5012158;28;20060;-71
2021/07/04 14:53:35;;;;;;;3.00;2.67;;;;;;;;;;5012476;28;20077;-73
2021/07/04 14:56:08;;;;;;;6.47;2.78;;;;;;;;;;5015258;28;20100;-73
2021/07/04 14:58:35;;;;;;;4.20;3.28;;;;;;;;;;5005425;28;20517;-67